La Salle, Canada
Current Conditions -  °F | °C
As of 12:00 PM on Sunday 21 Dec 2014 (Local Time) from CYWG Reporting Station
Haze Haze  
Wind Chill: 19°   Ceiling: 200
Heat Index: 30°   Visibility: 0.75mi
Dew Point: 28°   Wind: 16mph
Humidity: 93%   Direction: 180°S
Pressure: 29.62"   Gusts: 24mph
Location:  49.68°N, 97.27°W
Report Text: CYWG 211800Z 18014G21KT 3/4SM R13/3500V5000FT/U R36/3500VP6000FT/U BR OVC002 M01/M02 A2962 RMK ST8 CIG VRB 001-003 SLP043
Loading
Personal Weather Stations






























Interactive Weather Map New forecast layout! Learn more

10-Day Weather Forecast

Advertisements
Track Severe Weather on mobile